createdAt,value
2023-03-06T00:00:24.326Z,99312.83
2023-03-06T00:03:55.288Z,99313.45
2023-03-06T00:06:59.324Z,99309.20
2023-03-06T00:10:03.964Z,99311.52
2023-03-06T00:13:13.691Z,99310.11
2023-03-06T00:16:17.661Z,99309.31
2023-03-06T00:19:23.187Z,99308.22
2023-03-06T00:22:27.509Z,99307.22
2023-03-06T00:25:31.620Z,99313.05
2023-03-06T00:28:36.589Z,99311.73
2023-03-06T00:31:40.639Z,99309.98
2023-03-06T00:34:49.019Z,99305.71
2023-03-06T00:37:53.110Z,99302.12
2023-03-06T00:40:57.091Z,99303.36
2023-03-06T00:44:01.043Z,99306.38
2023-03-06T00:47:05.264Z,99304.51
2023-03-06T00:50:10.519Z,99303.19
2023-03-06T00:53:14.622Z,99303.39
2023-03-06T00:56:20.051Z,99301.61
2023-03-06T00:59:25.093Z,99301.48
2023-03-06T01:02:29.324Z,99302.48
2023-03-06T01:05:36.215Z,99300.65
2023-03-06T01:08:40.225Z,99298.80
2023-03-06T01:11:44.225Z,99296.19
2023-03-06T01:14:48.562Z,99298.72
2023-03-06T01:17:56.528Z,99295.66
2023-03-06T01:21:00.486Z,99293.46
2023-03-06T01:24:04.672Z,99290.65
2023-03-06T01:27:08.734Z,99293.06
2023-03-06T01:30:13.454Z,99293.41
2023-03-06T01:33:17.468Z,99291.38
2023-03-06T01:36:21.468Z,99292.31
2023-03-06T01:39:25.502Z,99290.59
2023-03-06T01:42:31.363Z,99290.58
2023-03-06T01:45:36.139Z,99289.52
2023-03-06T01:48:40.429Z,99284.08
2023-03-06T01:52:00.111Z,99282.52
2023-03-06T01:55:10.001Z,99280.84
2023-03-06T01:58:18.378Z,99280.39
2023-03-06T02:01:22.682Z,99280.23
2023-03-06T02:04:26.650Z,99281.92
2023-03-06T02:07:31.502Z,99277.75
2023-03-06T02:10:36.371Z,99281.73
2023-03-06T02:13:41.767Z,99282.98
2023-03-06T02:16:45.910Z,99283.79
2023-03-06T02:20:10.309Z,99278.41
2023-03-06T02:23:19.984Z,99277.73
2023-03-06T02:26:26.851Z,99274.02
2023-03-06T02:29:32.364Z,99273.96
2023-03-06T02:32:38.518Z,99275.81
2023-03-06T02:36:03.639Z,99274.51
2023-03-06T02:39:08.013Z,99273.13
2023-03-06T02:42:18.601Z,99273.99
2023-03-06T02:45:45.305Z,99276.77
2023-03-06T02:48:49.462Z,99279.36
2023-03-06T02:51:53.575Z,99276.33
2023-03-06T02:54:57.577Z,99279.06
2023-03-06T02:58:02.584Z,99275.19
2023-03-06T03:01:07.497Z,99274.77
2023-03-06T03:04:12.030Z,99274.22
2023-03-06T03:07:16.288Z,99272.27
2023-03-06T03:10:21.207Z,99270.05
2023-03-06T03:13:25.361Z,99274.13
2023-03-06T03:16:29.719Z,99274.81
2023-03-06T03:19:35.450Z,99274.73
2023-03-06T03:22:39.877Z,99271.27
2023-03-06T03:25:43.897Z,99272.64
2023-03-06T03:28:48.149Z,99273.98
2023-03-06T03:31:53.741Z,99273.16
2023-03-06T03:35:01.664Z,99272.58
2023-03-06T03:38:05.899Z,99272.98
2023-03-06T03:41:10.223Z,99271.57
2023-03-06T03:44:15.137Z,99267.41
2023-03-06T03:47:19.658Z,99268.31
2023-03-06T03:50:23.841Z,99266.91
2023-03-06T03:53:27.900Z,99262.81
2023-03-06T03:56:32.930Z,99261.36
2023-03-06T03:59:46.371Z,99263.08
2023-03-06T04:03:16.705Z,99263.50
2023-03-06T04:06:22.464Z,99261.91
2023-03-06T04:09:27.057Z,99262.38
2023-03-06T04:12:31.323Z,99261.42
2023-03-06T04:15:35.761Z,99255.86
2023-03-06T04:18:40.187Z,99258.24
2023-03-06T04:21:45.018Z,99255.06
2023-03-06T04:24:50.003Z,99250.56
2023-03-06T04:27:54.464Z,99254.58
2023-03-06T04:30:58.808Z,99252.02
2023-03-06T04:34:03.215Z,99249.14
2023-03-06T04:37:14.125Z,99245.46
2023-03-06T04:40:29.913Z,99250.09
2023-03-06T04:43:34.129Z,99246.66
2023-03-06T04:46:38.112Z,99246.16
2023-03-06T04:49:42.164Z,99243.02
2023-03-06T04:52:46.834Z,99246.98
2023-03-06T04:55:50.741Z,99242.17
2023-03-06T04:58:54.719Z,99241.70
2023-03-06T05:01:58.710Z,99239.29
2023-03-06T05:05:04.260Z,99233.66
2023-03-06T05:08:11.049Z,99236.81
2023-03-06T05:11:15.079Z,99240.84
2023-03-06T05:14:19.238Z,99242.13
2023-03-06T05:17:23.216Z,99240.36
2023-03-06T05:20:28.875Z,99239.27
2023-03-06T05:23:34.833Z,99239.71
2023-03-06T05:26:38.764Z,99240.02
2023-03-06T05:29:42.747Z,99234.45
2023-03-06T05:32:46.796Z,99233.93
2023-03-06T05:35:51.137Z,99237.38
2023-03-06T05:38:55.271Z,99239.58
2023-03-06T05:41:59.334Z,99239.02
2023-03-06T05:45:04.577Z,99243.94
2023-03-06T05:48:09.402Z,99241.33
2023-03-06T05:51:13.356Z,99244.10
2023-03-06T05:54:17.542Z,99245.48
2023-03-06T05:57:24.128Z,99243.91
2023-03-06T06:00:28.433Z,99247.29
2023-03-06T06:03:32.421Z,99250.20
2023-03-06T06:06:36.380Z,99253.63
2023-03-06T06:09:40.688Z,99253.04
2023-03-06T06:12:44.725Z,99253.14
2023-03-06T06:15:48.773Z,99256.54
2023-03-06T06:18:52.841Z,99254.11
2023-03-06T06:21:57.476Z,99253.27
2023-03-06T06:25:01.591Z,99256.38
2023-03-06T06:28:06.132Z,99251.49
2023-03-06T06:31:12.700Z,99253.08
2023-03-06T06:34:17.119Z,99257.73
2023-03-06T06:37:21.099Z,99255.69
2023-03-06T06:40:27.722Z,99258.74
2023-03-06T06:43:31.830Z,99258.42
2023-03-06T06:47:20.786Z,99258.16
2023-03-06T06:50:01.158Z,99252.81
2023-03-06T06:53:05.682Z,99253.74
2023-03-06T06:56:09.819Z,99251.07
2023-03-06T06:59:17.199Z,99248.30
2023-03-06T07:02:21.716Z,99243.21
2023-03-06T07:05:25.764Z,99243.55
2023-03-06T07:08:30.558Z,99242.23
2023-03-06T07:11:34.494Z,99240.38
2023-03-06T07:14:39.643Z,99240.45
2023-03-06T07:17:43.675Z,99242.42
2023-03-06T07:20:47.859Z,99240.46
2023-03-06T07:23:51.875Z,99242.16
2023-03-06T07:26:55.821Z,99240.95
2023-03-06T07:30:00.193Z,99240.23
2023-03-06T07:33:04.358Z,99239.90
2023-03-06T07:36:12.720Z,99235.69
2023-03-06T07:39:17.108Z,99235.61
2023-03-06T07:42:21.068Z,99231.88
2023-03-06T07:45:31.066Z,99234.38
2023-03-06T07:48:36.806Z,99233.56
2023-03-06T07:51:40.839Z,99236.42
2023-03-06T07:54:44.958Z,99238.70
2023-03-06T07:57:50.818Z,99241.99
2023-03-06T08:00:54.937Z,99237.02
2023-03-06T08:04:01.183Z,99237.95
2023-03-06T08:07:05.319Z,99235.40
2023-03-06T08:10:10.260Z,99236.67
2023-03-06T08:13:14.268Z,99232.60
2023-03-06T08:16:21.196Z,99235.52
2023-03-06T08:19:25.267Z,99234.20
2023-03-06T08:22:29.282Z,99231.57
2023-03-06T08:25:33.298Z,99230.73
2023-03-06T08:28:37.521Z,99228.66
2023-03-06T08:31:44.467Z,99230.73
2023-03-06T08:34:48.526Z,99221.69
2023-03-06T08:37:52.532Z,99221.83
2023-03-06T08:40:56.554Z,99220.77
2023-03-06T08:44:00.942Z,99220.59
2023-03-06T08:47:05.055Z,99218.05
2023-03-06T08:50:10.204Z,99220.36
2023-03-06T08:53:14.421Z,99222.22
2023-03-06T08:56:23.344Z,99218.84
2023-03-06T08:59:27.714Z,99213.02
2023-03-06T09:02:32.586Z,99207.35
2023-03-06T09:05:37.148Z,99210.88
2023-03-06T09:08:43.340Z,99211.03
2023-03-06T09:11:47.363Z,99209.72
2023-03-06T09:14:51.537Z,99211.15
2023-03-06T09:17:55.577Z,99206.91
2023-03-06T09:20:59.614Z,99206.48
2023-03-06T09:24:03.715Z,99207.17
2023-03-06T09:27:07.665Z,99208.30
2023-03-06T09:30:12.555Z,99205.00
2023-03-06T09:33:16.840Z,99207.45
2023-03-06T09:36:23.069Z,99204.61
2023-03-06T09:39:27.528Z,99203.27
2023-03-06T09:42:32.714Z,99203.74
2023-03-06T09:45:37.352Z,99198.12
2023-03-06T09:48:53.260Z,99198.05
2023-03-06T09:52:15.368Z,99195.95
2023-03-06T09:55:27.343Z,99192.01
2023-03-06T09:58:37.871Z,99188.70
2023-03-06T10:01:46.293Z,99189.44
2023-03-06T10:04:54.732Z,99185.09
2023-03-06T10:08:06.550Z,99177.96
2023-03-06T10:11:13.457Z,99184.79
2023-03-06T10:14:20.584Z,99179.88
2023-03-06T10:17:26.332Z,99181.90
2023-03-06T10:20:41.096Z,99173.98
2023-03-06T10:23:54.903Z,99174.40
2023-03-06T10:27:01.906Z,99172.81
2023-03-06T10:30:33.963Z,99166.66
2023-03-06T10:34:15.154Z,99162.64
2023-03-06T10:37:21.787Z,99171.43
2023-03-06T10:40:36.140Z,99167.84
2023-03-06T10:43:44.336Z,99166.23
2023-03-06T10:46:51.653Z,99163.56
2023-03-06T10:50:01.539Z,99164.73
2023-03-06T10:53:07.662Z,99158.27
2023-03-06T10:56:11.684Z,99154.63
2023-03-06T10:59:25.546Z,99142.90
2023-03-06T11:02:38.398Z,99148.26
2023-03-06T11:05:55.468Z,99146.10
2023-03-06T11:09:24.271Z,99137.35
2023-03-06T11:12:39.861Z,99134.85
2023-03-06T11:16:14.989Z,99123.92
2023-03-06T11:19:28.122Z,99118.86
2023-03-06T11:22:32.633Z,99116.82
2023-03-06T11:25:53.400Z,99112.98
2023-03-06T11:29:17.410Z,99104.69
2023-03-06T11:32:36.805Z,99091.99
2023-03-06T11:35:56.252Z,99092.10
2023-03-06T11:39:04.646Z,99084.55
2023-03-06T11:42:25.726Z,99079.47
2023-03-06T11:45:46.470Z,99075.30
2023-03-06T11:49:17.312Z,99072.85
2023-03-06T11:52:32.570Z,99066.16
2023-03-06T11:55:42.839Z,99067.70
2023-03-06T11:59:33.113Z,99063.06
2023-03-06T12:03:06.055Z,99056.25
2023-03-06T12:06:48.862Z,99056.09
2023-03-06T12:10:23.841Z,99058.63
2023-03-06T12:13:50.147Z,99055.56
2023-03-06T12:17:19.439Z,99046.95
2023-03-06T12:20:55.076Z,99045.25
2023-03-06T12:24:33.334Z,99046.20
2023-03-06T12:27:55.649Z,99041.25
2023-03-06T12:31:24.605Z,99032.83
2023-03-06T12:34:58.858Z,99032.57
2023-03-06T12:38:09.007Z,99029.52
2023-03-06T12:41:24.839Z,99033.66
2023-03-06T12:44:47.611Z,99028.00
2023-03-06T12:47:56.607Z,99021.42
2023-03-06T12:51:01.605Z,99019.34
2023-03-06T12:54:06.882Z,99019.34
2023-03-06T12:57:15.266Z,99020.14
2023-03-06T13:00:34.706Z,99017.40
2023-03-06T13:03:47.431Z,99012.27
2023-03-06T13:07:10.710Z,99009.48
2023-03-06T13:10:29.355Z,99009.80
2023-03-06T13:13:45.870Z,99008.43
2023-03-06T13:16:49.790Z,99000.65
2023-03-06T13:20:16.540Z,98996.60
2023-03-06T13:23:29.638Z,98994.20
2023-03-06T13:26:33.618Z,98993.49
2023-03-06T13:29:37.600Z,98996.33
2023-03-06T13:32:41.682Z,98984.43
2023-03-06T13:35:55.597Z,98976.98
2023-03-06T13:39:03.947Z,98973.46
2023-03-06T13:42:28.079Z,98976.10
2023-03-06T13:45:44.866Z,98974.14
2023-03-06T13:49:02.845Z,98975.71
2023-03-06T13:52:29.690Z,98971.31
2023-03-06T13:55:58.461Z,98968.71
2023-03-06T13:59:17.730Z,98962.86
2023-03-06T14:02:39.882Z,98966.58
2023-03-06T14:05:47.881Z,98966.73
2023-03-06T14:08:52.262Z,98969.04
2023-03-06T14:12:15.572Z,98967.23
2023-03-06T14:15:31.927Z,98964.38
2023-03-06T14:18:44.598Z,98961.62
2023-03-06T14:21:54.814Z,98960.30
2023-03-06T14:25:07.375Z,98957.92
2023-03-06T14:28:26.445Z,98959.59
2023-03-06T14:31:33.443Z,98962.32
2023-03-06T14:34:41.255Z,98957.48
2023-03-06T14:37:55.694Z,98957.48
2023-03-06T14:41:00.012Z,98957.27
2023-03-06T14:44:22.850Z,98957.77
2023-03-06T14:47:37.219Z,98957.38
2023-03-06T14:50:42.286Z,98952.22
2023-03-06T14:53:49.082Z,98952.17
2023-03-06T14:57:00.829Z,98951.52
2023-03-06T15:00:07.003Z,98955.59
2023-03-06T15:03:43.781Z,98959.26
2023-03-06T15:06:48.040Z,98960.46
2023-03-06T15:09:54.385Z,98962.02
2023-03-06T15:13:21.112Z,98960.88
2023-03-06T15:16:30.090Z,98962.55
2023-03-06T15:19:40.647Z,98965.59
2023-03-06T15:22:50.869Z,98968.57
2023-03-06T15:25:58.427Z,98967.83
2023-03-06T15:29:09.637Z,98970.98
2023-03-06T15:32:35.725Z,98966.08
2023-03-06T15:35:40.095Z,98963.23
2023-03-06T15:38:46.426Z,98964.48
2023-03-06T15:42:03.587Z,98966.33
2023-03-06T15:45:19.527Z,98965.45
2023-03-06T15:48:23.566Z,98964.63
2023-03-06T15:51:27.483Z,98961.98
2023-03-06T15:54:32.975Z,98963.25
2023-03-06T15:57:38.245Z,98967.42
2023-03-06T16:00:42.610Z,98961.46
2023-03-06T16:03:46.583Z,98965.49
2023-03-06T16:06:50.623Z,98966.84
2023-03-06T16:09:54.633Z,98971.26
2023-03-06T16:13:04.550Z,98968.58
2023-03-06T16:16:22.342Z,98970.08
2023-03-06T16:19:27.821Z,98964.09
2023-03-06T16:22:32.078Z,98964.55
2023-03-06T16:25:42.122Z,98960.27
2023-03-06T16:28:46.559Z,98962.85
2023-03-06T16:31:51.555Z,98966.98
2023-03-06T16:34:55.526Z,98965.75
2023-03-06T16:38:00.185Z,98966.74
2023-03-06T16:41:04.278Z,98967.94
2023-03-06T16:44:10.152Z,98970.63
2023-03-06T16:47:14.252Z,98971.02
2023-03-06T16:50:28.924Z,98968.52
2023-03-06T16:53:32.939Z,98967.66
2023-03-06T16:56:36.953Z,98971.20
2023-03-06T16:59:41.303Z,98972.53
2023-03-06T17:02:48.707Z,98967.94
2023-03-06T17:05:53.101Z,98970.67
2023-03-06T17:08:58.251Z,98974.68
2023-03-06T17:12:02.251Z,98976.92
2023-03-06T17:15:07.157Z,98978.75
2023-03-06T17:18:11.111Z,98981.54
2023-03-06T17:21:18.191Z,98980.88
2023-03-06T17:24:22.317Z,98973.21
2023-03-06T17:27:26.319Z,98972.36
2023-03-06T17:30:30.242Z,98974.45
2023-03-06T17:33:34.258Z,98975.41
2023-03-06T17:36:38.272Z,98977.44
2023-03-06T17:39:42.287Z,98974.91
2023-03-06T17:42:46.411Z,98973.50
2023-03-06T17:45:50.348Z,98972.35
2023-03-06T17:48:55.504Z,98973.17
2023-03-06T17:52:01.127Z,98978.14
2023-03-06T17:55:06.513Z,98972.20
2023-03-06T17:58:12.350Z,98973.35
2023-03-06T18:01:19.837Z,98972.65
2023-03-06T18:04:24.448Z,98970.80
2023-03-06T18:07:28.463Z,98968.13
2023-03-06T18:10:32.484Z,98962.58
2023-03-06T18:13:39.363Z,98970.91
2023-03-06T18:16:43.592Z,98967.94
2023-03-06T18:19:47.903Z,98967.16
2023-03-06T18:22:52.031Z,98968.92
2023-03-06T18:26:11.633Z,98966.25
2023-03-06T18:29:15.667Z,98966.42
2023-03-06T18:32:19.774Z,98960.59
2023-03-06T18:35:23.922Z,98965.64
2023-03-06T18:38:27.869Z,98967.65
2023-03-06T18:41:32.159Z,98971.30
2023-03-06T18:44:36.215Z,98976.11
2023-03-06T18:47:41.030Z,98974.73
2023-03-06T18:50:44.944Z,98968.07
2023-03-06T18:53:49.072Z,98970.15
2023-03-06T18:56:52.982Z,98968.50
2023-03-06T18:59:57.004Z,98964.77
2023-03-06T19:03:01.019Z,98961.61
2023-03-06T19:06:08.034Z,98956.49
2023-03-06T19:09:12.041Z,98960.14
2023-03-06T19:12:16.975Z,98961.68
2023-03-06T19:15:20.985Z,98953.39
2023-03-06T19:18:26.689Z,98958.98
2023-03-06T19:21:30.712Z,98955.45
2023-03-06T19:24:34.817Z,98951.19
2023-03-06T19:27:39.496Z,98951.60
2023-03-06T19:30:43.423Z,98949.54
2023-03-06T19:33:49.369Z,98948.63
2023-03-06T19:36:53.300Z,98955.52
2023-03-06T19:40:01.422Z,98953.95
2023-03-06T19:43:05.521Z,98948.91
2023-03-06T19:46:13.979Z,98948.57
2023-03-06T19:49:18.245Z,98947.15
2023-03-06T19:52:24.632Z,98942.98
2023-03-06T19:55:28.860Z,98942.45
2023-03-06T19:58:33.184Z,98943.47
2023-03-06T20:01:38.682Z,98942.20
2023-03-06T20:04:42.686Z,98944.75
2023-03-06T20:07:46.767Z,98938.84
2023-03-06T20:10:50.661Z,98940.34
2023-03-06T20:13:54.617Z,98936.28
2023-03-06T20:16:58.540Z,98943.73
2023-03-06T20:20:03.276Z,98940.64
2023-03-06T20:23:07.220Z,98942.80
2023-03-06T20:26:14.433Z,98940.91
2023-03-06T20:29:18.432Z,98935.50
2023-03-06T20:32:22.413Z,98935.77
2023-03-06T20:35:26.457Z,98934.77
2023-03-06T20:38:30.697Z,98938.38
2023-03-06T20:41:35.936Z,98937.30
2023-03-06T20:44:39.954Z,98939.42
2023-03-06T20:47:47.135Z,98934.83
2023-03-06T20:51:06.011Z,98934.39
2023-03-06T20:54:13.095Z,98934.77
2023-03-06T20:57:17.209Z,98937.41
2023-03-06T21:00:21.417Z,98941.30
2023-03-06T21:03:25.773Z,98938.30
2023-03-06T21:06:30.476Z,98939.63
2023-03-06T21:09:37.679Z,98937.96
2023-03-06T21:12:41.696Z,98938.42
2023-03-06T21:15:47.589Z,98939.52
2023-03-06T21:18:54.547Z,98937.66
2023-03-06T21:21:58.715Z,98937.95
2023-03-06T21:25:02.781Z,98937.08
2023-03-06T21:28:06.680Z,98931.91
2023-03-06T21:31:12.535Z,98929.66
2023-03-06T21:34:16.466Z,98930.42
2023-03-06T21:37:20.387Z,98928.14
2023-03-06T21:40:24.297Z,98928.28
2023-03-06T21:43:28.320Z,98932.36
2023-03-06T21:46:33.456Z,98930.86
2023-03-06T21:49:37.470Z,98931.77
2023-03-06T21:52:41.441Z,98935.83
2023-03-06T21:55:45.402Z,98928.80
2023-03-06T21:58:49.402Z,98929.23
2023-03-06T22:01:53.338Z,98930.05
2023-03-06T22:04:57.343Z,98929.08
2023-03-06T22:08:01.330Z,98929.01
2023-03-06T22:11:07.733Z,98934.66
2023-03-06T22:14:11.744Z,98934.26
2023-03-06T22:17:15.666Z,98936.69
2023-03-06T22:20:19.549Z,98941.16
2023-03-06T22:23:23.856Z,98942.73
2023-03-06T22:26:29.270Z,98940.58
2023-03-06T22:29:33.558Z,98947.56
2023-03-06T22:32:37.607Z,98950.21
2023-03-06T22:35:41.742Z,98951.79
2023-03-06T22:38:47.220Z,98955.47
2023-03-06T22:41:51.565Z,98952.58
2023-03-06T22:44:55.578Z,98950.44
2023-03-06T22:48:10.137Z,98952.83
2023-03-06T22:51:20.481Z,98958.13
2023-03-06T22:54:24.517Z,98964.70
2023-03-06T22:57:29.973Z,98966.05
2023-03-06T23:00:33.925Z,98970.21
2023-03-06T23:03:39.449Z,98972.52
2023-03-06T23:06:43.591Z,98974.70
2023-03-06T23:09:47.670Z,98970.46
2023-03-06T23:13:10.431Z,98975.55
2023-03-06T23:16:33.661Z,98976.66
2023-03-06T23:19:56.467Z,98977.83
2023-03-06T23:23:19.196Z,98978.86
2023-03-06T23:26:29.105Z,98976.62
2023-03-06T23:29:33.080Z,98977.50
2023-03-06T23:32:37.171Z,98981.21
2023-03-06T23:35:41.466Z,98983.19
2023-03-06T23:38:46.679Z,98982.29
2023-03-06T23:41:50.640Z,98983.88
2023-03-06T23:44:55.007Z,98986.08
2023-03-06T23:47:59.224Z,98990.70
2023-03-06T23:51:15.548Z,98992.10
2023-03-06T23:54:19.485Z,98999.28
2023-03-06T23:57:23.449Z,99000.74
